sensor_id;sensor_type;location;lat;lon;timestamp;temperature;humidity
6114;DHT22;3087;48.392;10.836;2023-02-18T00:00:56;12.60;99.90
6114;DHT22;3087;48.392;10.836;2023-02-18T00:03:26;12.50;99.90
6114;DHT22;3087;48.392;10.836;2023-02-18T00:05:52;12.50;99.90
6114;DHT22;3087;48.392;10.836;2023-02-18T00:08:18;12.50;99.90
6114;DHT22;3087;48.392;10.836;2023-02-18T00:10:44;12.60;99.90
6114;DHT22;3087;48.392;10.836;2023-02-18T00:13:10;12.60;99.90
6114;DHT22;3087;48.392;10.836;2023-02-18T00:15:36;12.60;99.90
6114;DHT22;3087;48.392;10.836;2023-02-18T00:18:02;12.60;99.90
6114;DHT22;3087;48.392;10.836;2023-02-18T00:20:27;12.60;99.90
6114;DHT22;3087;48.392;10.836;2023-02-18T00:22:53;12.60;99.90
6114;DHT22;3087;48.392;10.836;2023-02-18T00:25:19;12.60;99.90
6114;DHT22;3087;48.392;10.836;2023-02-18T00:27:44;12.60;99.90
6114;DHT22;3087;48.392;10.836;2023-02-18T00:30:10;12.60;99.90
6114;DHT22;3087;48.392;10.836;2023-02-18T00:32:36;12.60;99.90
6114;DHT22;3087;48.392;10.836;2023-02-18T00:35:02;12.60;99.90
6114;DHT22;3087;48.392;10.836;2023-02-18T00:37:28;12.70;99.90
6114;DHT22;3087;48.392;10.836;2023-02-18T00:39:53;12.60;99.90
6114;DHT22;3087;48.392;10.836;2023-02-18T00:42:19;12.60;99.90
6114;DHT22;3087;48.392;10.836;2023-02-18T00:44:45;12.60;99.90
6114;DHT22;3087;48.392;10.836;2023-02-18T00:47:10;12.60;99.90
6114;DHT22;3087;48.392;10.836;2023-02-18T00:49:36;12.50;99.90
6114;DHT22;3087;48.392;10.836;2023-02-18T00:52:02;12.60;99.90
6114;DHT22;3087;48.392;10.836;2023-02-18T00:54:28;12.60;99.90
6114;DHT22;3087;48.392;10.836;2023-02-18T00:56:53;12.70;99.90
6114;DHT22;3087;48.392;10.836;2023-02-18T00:59:19;12.70;99.90
6114;DHT22;3087;48.392;10.836;2023-02-18T01:01:45;12.70;99.90
6114;DHT22;3087;48.392;10.836;2023-02-18T01:04:11;12.80;99.90
6114;DHT22;3087;48.392;10.836;2023-02-18T01:06:37;12.70;99.90
6114;DHT22;3087;48.392;10.836;2023-02-18T01:09:04;12.80;99.90
6114;DHT22;3087;48.392;10.836;2023-02-18T01:11:30;12.70;99.90
6114;DHT22;3087;48.392;10.836;2023-02-18T01:13:55;12.70;99.90
6114;DHT22;3087;48.392;10.836;2023-02-18T01:16:21;12.80;99.90
6114;DHT22;3087;48.392;10.836;2023-02-18T01:18:47;12.80;99.90
6114;DHT22;3087;48.392;10.836;2023-02-18T01:21:13;12.80;99.90
6114;DHT22;3087;48.392;10.836;2023-02-18T01:23:40;12.80;99.90
6114;DHT22;3087;48.392;10.836;2023-02-18T01:26:07;12.80;99.90
6114;DHT22;3087;48.392;10.836;2023-02-18T01:28:33;12.80;99.90
6114;DHT22;3087;48.392;10.836;2023-02-18T01:31:04;12.70;99.90
6114;DHT22;3087;48.392;10.836;2023-02-18T01:33:30;12.70;99.90
6114;DHT22;3087;48.392;10.836;2023-02-18T01:35:56;12.60;99.90
6114;DHT22;3087;48.392;10.836;2023-02-18T01:38:22;12.50;99.90
6114;DHT22;3087;48.392;10.836;2023-02-18T01:40:52;12.50;99.90
6114;DHT22;3087;48.392;10.836;2023-02-18T01:43:19;12.40;99.90
6114;DHT22;3087;48.392;10.836;2023-02-18T01:45:56;12.60;99.90
6114;DHT22;3087;48.392;10.836;2023-02-18T01:56:09;12.10;99.90
6114;DHT22;3087;48.392;10.836;2023-02-18T01:58:36;12.10;99.90
6114;DHT22;3087;48.392;10.836;2023-02-18T02:01:02;12.00;99.90
6114;DHT22;3087;48.392;10.836;2023-02-18T02:03:27;12.00;99.90
6114;DHT22;3087;48.392;10.836;2023-02-18T02:05:53;12.00;99.90
6114;DHT22;3087;48.392;10.836;2023-02-18T02:08:19;12.00;99.90
6114;DHT22;3087;48.392;10.836;2023-02-18T02:13:59;12.20;99.90
6114;DHT22;3087;48.392;10.836;2023-02-18T02:16:41;12.10;99.90
6114;DHT22;3087;48.392;10.836;2023-02-18T02:27:21;12.40;99.90
6114;DHT22;3087;48.392;10.836;2023-02-18T02:41:07;12.00;99.90
6114;DHT22;3087;48.392;10.836;2023-02-18T02:43:55;12.10;99.90
6114;DHT22;3087;48.392;10.836;2023-02-18T02:46:35;12.10;99.90
6114;DHT22;3087;48.392;10.836;2023-02-18T02:54:31;12.00;99.90
6114;DHT22;3087;48.392;10.836;2023-02-18T02:59:32;12.10;99.90
6114;DHT22;3087;48.392;10.836;2023-02-18T03:02:12;12.10;99.90
6114;DHT22;3087;48.392;10.836;2023-02-18T03:15:09;11.80;99.90
6114;DHT22;3087;48.392;10.836;2023-02-18T03:18:02;11.70;99.90
6114;DHT22;3087;48.392;10.836;2023-02-18T03:20:50;11.60;99.90
6114;DHT22;3087;48.392;10.836;2023-02-18T03:23:24;11.60;99.90
6114;DHT22;3087;48.392;10.836;2023-02-18T03:25:52;11.60;99.90
6114;DHT22;3087;48.392;10.836;2023-02-18T03:28:19;11.60;99.90
6114;DHT22;3087;48.392;10.836;2023-02-18T03:30:56;11.70;99.90
6114;DHT22;3087;48.392;10.836;2023-02-18T03:33:30;11.70;99.90
6114;DHT22;3087;48.392;10.836;2023-02-18T03:35:57;11.90;99.90
6114;DHT22;3087;48.392;10.836;2023-02-18T03:38:28;11.90;99.90
6114;DHT22;3087;48.392;10.836;2023-02-18T03:40:56;12.00;99.90
6114;DHT22;3087;48.392;10.836;2023-02-18T03:43:22;12.00;99.90
6114;DHT22;3087;48.392;10.836;2023-02-18T03:45:48;11.90;99.90
6114;DHT22;3087;48.392;10.836;2023-02-18T03:48:13;11.80;99.90
6114;DHT22;3087;48.392;10.836;2023-02-18T03:50:39;11.80;99.90
6114;DHT22;3087;48.392;10.836;2023-02-18T03:53:05;11.80;99.90
6114;DHT22;3087;48.392;10.836;2023-02-18T03:55:30;11.80;99.90
6114;DHT22;3087;48.392;10.836;2023-02-18T03:57:56;11.80;99.90
6114;DHT22;3087;48.392;10.836;2023-02-18T04:00:22;11.80;99.90
6114;DHT22;3087;48.392;10.836;2023-02-18T04:02:47;11.70;99.90
6114;DHT22;3087;48.392;10.836;2023-02-18T04:05:13;12.00;99.90
6114;DHT22;3087;48.392;10.836;2023-02-18T04:07:39;12.00;99.90
6114;DHT22;3087;48.392;10.836;2023-02-18T04:10:05;11.80;99.90
6114;DHT22;3087;48.392;10.836;2023-02-18T04:12:31;11.90;99.90
6114;DHT22;3087;48.392;10.836;2023-02-18T04:14:56;12.10;99.90
6114;DHT22;3087;48.392;10.836;2023-02-18T04:17:22;11.90;99.90
6114;DHT22;3087;48.392;10.836;2023-02-18T04:19:48;11.90;99.90
6114;DHT22;3087;48.392;10.836;2023-02-18T04:22:13;12.00;99.90
6114;DHT22;3087;48.392;10.836;2023-02-18T04:24:39;11.70;99.90
6114;DHT22;3087;48.392;10.836;2023-02-18T04:27:04;11.90;99.90
6114;DHT22;3087;48.392;10.836;2023-02-18T04:29:30;12.10;99.90
6114;DHT22;3087;48.392;10.836;2023-02-18T04:31:56;11.70;99.90
6114;DHT22;3087;48.392;10.836;2023-02-18T04:34:22;11.60;99.90
6114;DHT22;3087;48.392;10.836;2023-02-18T04:36:47;11.70;99.90
6114;DHT22;3087;48.392;10.836;2023-02-18T04:39:13;11.80;99.90
6114;DHT22;3087;48.392;10.836;2023-02-18T04:41:38;11.70;99.90
6114;DHT22;3087;48.392;10.836;2023-02-18T04:44:04;11.90;99.90
6114;DHT22;3087;48.392;10.836;2023-02-18T04:46:31;11.70;99.90
6114;DHT22;3087;48.392;10.836;2023-02-18T04:48:56;11.60;99.90
6114;DHT22;3087;48.392;10.836;2023-02-18T04:51:22;11.60;99.90
6114;DHT22;3087;48.392;10.836;2023-02-18T04:53:48;11.60;99.90
6114;DHT22;3087;48.392;10.836;2023-02-18T04:56:13;11.70;99.90
6114;DHT22;3087;48.392;10.836;2023-02-18T04:58:39;11.60;99.90
6114;DHT22;3087;48.392;10.836;2023-02-18T05:01:05;11.60;99.90
6114;DHT22;3087;48.392;10.836;2023-02-18T05:03:31;11.60;99.90
6114;DHT22;3087;48.392;10.836;2023-02-18T05:05:57;11.70;99.90
6114;DHT22;3087;48.392;10.836;2023-02-18T05:08:23;11.60;99.90
6114;DHT22;3087;48.392;10.836;2023-02-18T05:10:49;11.60;99.90
6114;DHT22;3087;48.392;10.836;2023-02-18T05:13:15;11.50;99.90
6114;DHT22;3087;48.392;10.836;2023-02-18T05:15:41;11.60;99.90
6114;DHT22;3087;48.392;10.836;2023-02-18T05:18:06;11.50;99.90
6114;DHT22;3087;48.392;10.836;2023-02-18T05:20:32;11.40;99.90
6114;DHT22;3087;48.392;10.836;2023-02-18T05:22:58;11.40;99.90
6114;DHT22;3087;48.392;10.836;2023-02-18T05:25:24;11.50;99.90
6114;DHT22;3087;48.392;10.836;2023-02-18T05:27:49;11.50;99.90
6114;DHT22;3087;48.392;10.836;2023-02-18T05:30:15;11.50;99.90
6114;DHT22;3087;48.392;10.836;2023-02-18T05:32:40;11.50;99.90
6114;DHT22;3087;48.392;10.836;2023-02-18T05:35:06;11.60;99.90
6114;DHT22;3087;48.392;10.836;2023-02-18T05:37:32;11.80;99.90
6114;DHT22;3087;48.392;10.836;2023-02-18T05:39:58;11.60;99.90
6114;DHT22;3087;48.392;10.836;2023-02-18T05:42:23;11.50;99.90
6114;DHT22;3087;48.392;10.836;2023-02-18T05:44:49;11.60;99.90
6114;DHT22;3087;48.392;10.836;2023-02-18T05:47:14;11.60;99.90
6114;DHT22;3087;48.392;10.836;2023-02-18T05:49:41;11.70;99.90
6114;DHT22;3087;48.392;10.836;2023-02-18T05:52:07;11.70;99.90
6114;DHT22;3087;48.392;10.836;2023-02-18T05:54:34;11.80;99.90
6114;DHT22;3087;48.392;10.836;2023-02-18T05:57:00;11.80;99.90
6114;DHT22;3087;48.392;10.836;2023-02-18T05:59:26;11.80;99.90
6114;DHT22;3087;48.392;10.836;2023-02-18T06:01:53;11.90;99.90
6114;DHT22;3087;48.392;10.836;2023-02-18T06:04:18;11.90;99.90
6114;DHT22;3087;48.392;10.836;2023-02-18T06:06:44;12.10;99.90
6114;DHT22;3087;48.392;10.836;2023-02-18T06:09:10;11.90;99.90
6114;DHT22;3087;48.392;10.836;2023-02-18T06:11:36;11.70;99.90
6114;DHT22;3087;48.392;10.836;2023-02-18T06:14:01;11.70;99.90
6114;DHT22;3087;48.392;10.836;2023-02-18T06:16:28;11.70;99.90
6114;DHT22;3087;48.392;10.836;2023-02-18T06:18:54;11.60;99.90
6114;DHT22;3087;48.392;10.836;2023-02-18T06:21:20;11.50;99.90
6114;DHT22;3087;48.392;10.836;2023-02-18T06:23:46;11.80;99.90
6114;DHT22;3087;48.392;10.836;2023-02-18T06:26:11;11.40;99.90
6114;DHT22;3087;48.392;10.836;2023-02-18T06:28:37;11.60;99.90
6114;DHT22;3087;48.392;10.836;2023-02-18T06:31:03;11.40;99.90
6114;DHT22;3087;48.392;10.836;2023-02-18T06:33:28;11.40;99.90
6114;DHT22;3087;48.392;10.836;2023-02-18T06:35:59;11.40;99.90
6114;DHT22;3087;48.392;10.836;2023-02-18T06:38:25;11.60;99.90
6114;DHT22;3087;48.392;10.836;2023-02-18T06:40:50;11.50;99.90
6114;DHT22;3087;48.392;10.836;2023-02-18T06:43:17;11.40;99.90
6114;DHT22;3087;48.392;10.836;2023-02-18T06:45:43;11.40;99.90
6114;DHT22;3087;48.392;10.836;2023-02-18T06:48:09;11.30;99.90
6114;DHT22;3087;48.392;10.836;2023-02-18T06:50:34;11.40;99.90
6114;DHT22;3087;48.392;10.836;2023-02-18T06:53:00;11.40;99.90
6114;DHT22;3087;48.392;10.836;2023-02-18T06:55:26;11.40;99.90
6114;DHT22;3087;48.392;10.836;2023-02-18T06:57:51;11.60;99.90
6114;DHT22;3087;48.392;10.836;2023-02-18T07:00:17;11.60;99.90
6114;DHT22;3087;48.392;10.836;2023-02-18T07:02:43;11.60;99.90
6114;DHT22;3087;48.392;10.836;2023-02-18T07:05:08;11.50;99.90
6114;DHT22;3087;48.392;10.836;2023-02-18T07:07:35;11.60;99.90
6114;DHT22;3087;48.392;10.836;2023-02-18T07:10:00;11.70;99.90
6114;DHT22;3087;48.392;10.836;2023-02-18T07:12:26;12.00;99.90
6114;DHT22;3087;48.392;10.836;2023-02-18T07:14:52;11.70;99.90
6114;DHT22;3087;48.392;10.836;2023-02-18T07:17:17;11.60;99.90
6114;DHT22;3087;48.392;10.836;2023-02-18T07:19:43;11.70;99.90
6114;DHT22;3087;48.392;10.836;2023-02-18T07:22:09;12.00;99.90
6114;DHT22;3087;48.392;10.836;2023-02-18T07:24:34;11.70;99.90
6114;DHT22;3087;48.392;10.836;2023-02-18T07:27:00;12.10;99.90
6114;DHT22;3087;48.392;10.836;2023-02-18T07:29:25;11.80;99.90
6114;DHT22;3087;48.392;10.836;2023-02-18T07:31:51;11.80;99.90
6114;DHT22;3087;48.392;10.836;2023-02-18T07:34:17;11.90;99.90
6114;DHT22;3087;48.392;10.836;2023-02-18T07:36:42;11.80;99.90
6114;DHT22;3087;48.392;10.836;2023-02-18T07:39:08;11.90;99.90
6114;DHT22;3087;48.392;10.836;2023-02-18T07:41:33;11.80;99.90
6114;DHT22;3087;48.392;10.836;2023-02-18T07:43:59;12.00;99.90
6114;DHT22;3087;48.392;10.836;2023-02-18T07:46:24;11.90;99.90
6114;DHT22;3087;48.392;10.836;2023-02-18T07:48:50;11.80;99.90
6114;DHT22;3087;48.392;10.836;2023-02-18T07:51:16;11.70;99.90
6114;DHT22;3087;48.392;10.836;2023-02-18T07:53:41;11.70;99.90
6114;DHT22;3087;48.392;10.836;2023-02-18T07:56:07;11.80;99.90
6114;DHT22;3087;48.392;10.836;2023-02-18T07:58:35;11.80;99.90
6114;DHT22;3087;48.392;10.836;2023-02-18T08:01:06;11.90;99.90
6114;DHT22;3087;48.392;10.836;2023-02-18T08:03:33;12.00;99.90
6114;DHT22;3087;48.392;10.836;2023-02-18T08:06:00;11.80;99.90
6114;DHT22;3087;48.392;10.836;2023-02-18T08:08:27;11.90;99.90
6114;DHT22;3087;48.392;10.836;2023-02-18T08:10:55;11.90;99.90
6114;DHT22;3087;48.392;10.836;2023-02-18T08:13:21;12.00;99.90
6114;DHT22;3087;48.392;10.836;2023-02-18T08:15:47;12.00;99.90
6114;DHT22;3087;48.392;10.836;2023-02-18T08:18:16;12.00;99.90
6114;DHT22;3087;48.392;10.836;2023-02-18T08:20:43;11.90;99.90
6114;DHT22;3087;48.392;10.836;2023-02-18T08:23:09;11.90;99.90
6114;DHT22;3087;48.392;10.836;2023-02-18T08:25:35;12.00;99.90
6114;DHT22;3087;48.392;10.836;2023-02-18T08:28:01;11.90;99.90
6114;DHT22;3087;48.392;10.836;2023-02-18T08:30:27;12.00;99.90
6114;DHT22;3087;48.392;10.836;2023-02-18T08:32:53;12.20;99.90
6114;DHT22;3087;48.392;10.836;2023-02-18T08:35:18;12.30;99.90
6114;DHT22;3087;48.392;10.836;2023-02-18T08:37:44;13.70;99.90
6114;DHT22;3087;48.392;10.836;2023-02-18T08:40:11;12.20;99.90
6114;DHT22;3087;48.392;10.836;2023-02-18T08:42:38;12.30;99.90
6114;DHT22;3087;48.392;10.836;2023-02-18T08:45:04;12.30;99.90
6114;DHT22;3087;48.392;10.836;2023-02-18T08:47:30;12.10;99.90
6114;DHT22;3087;48.392;10.836;2023-02-18T08:49:56;12.30;99.90
6114;DHT22;3087;48.392;10.836;2023-02-18T08:52:22;12.30;99.90
6114;DHT22;3087;48.392;10.836;2023-02-18T08:54:47;12.50;99.90
6114;DHT22;3087;48.392;10.836;2023-02-18T08:57:13;12.40;99.90
6114;DHT22;3087;48.392;10.836;2023-02-18T08:59:39;12.50;99.90
6114;DHT22;3087;48.392;10.836;2023-02-18T09:02:05;12.50;99.90
6114;DHT22;3087;48.392;10.836;2023-02-18T09:04:30;12.50;99.90
6114;DHT22;3087;48.392;10.836;2023-02-18T09:06:56;12.50;99.90
6114;DHT22;3087;48.392;10.836;2023-02-18T09:09:21;12.50;99.90
6114;DHT22;3087;48.392;10.836;2023-02-18T09:11:47;12.70;99.90
6114;DHT22;3087;48.392;10.836;2023-02-18T09:14:13;12.70;99.90
6114;DHT22;3087;48.392;10.836;2023-02-18T09:16:39;12.80;99.90
6114;DHT22;3087;48.392;10.836;2023-02-18T09:19:05;12.80;99.90
6114;DHT22;3087;48.392;10.836;2023-02-18T09:21:32;12.90;99.90
6114;DHT22;3087;48.392;10.836;2023-02-18T09:23:58;12.90;99.90
6114;DHT22;3087;48.392;10.836;2023-02-18T09:26:25;13.20;99.90
6114;DHT22;3087;48.392;10.836;2023-02-18T09:28:53;13.20;99.90
6114;DHT22;3087;48.392;10.836;2023-02-18T09:31:21;13.20;99.90
6114;DHT22;3087;48.392;10.836;2023-02-18T09:33:51;13.40;99.90
6114;DHT22;3087;48.392;10.836;2023-02-18T09:36:18;13.50;99.90
6114;DHT22;3087;48.392;10.836;2023-02-18T09:38:45;13.70;99.90
6114;DHT22;3087;48.392;10.836;2023-02-18T09:41:44;14.00;99.90
6114;DHT22;3087;48.392;10.836;2023-02-18T09:47:05;14.10;99.90
6114;DHT22;3087;48.392;10.836;2023-02-18T09:49:38;14.40;99.90
6114;DHT22;3087;48.392;10.836;2023-02-18T09:52:18;14.60;99.90
6114;DHT22;3087;48.392;10.836;2023-02-18T09:54:45;14.50;99.90
6114;DHT22;3087;48.392;10.836;2023-02-18T10:00:03;14.70;99.90
6114;DHT22;3087;48.392;10.836;2023-02-18T10:02:30;14.70;99.90
6114;DHT22;3087;48.392;10.836;2023-02-18T10:04:57;14.70;99.90
6114;DHT22;3087;48.392;10.836;2023-02-18T10:07:32;14.70;99.90
6114;DHT22;3087;48.392;10.836;2023-02-18T10:10:02;14.60;99.90
6114;DHT22;3087;48.392;10.836;2023-02-18T10:12:33;14.50;99.90
6114;DHT22;3087;48.392;10.836;2023-02-18T10:15:00;14.70;99.90
6114;DHT22;3087;48.392;10.836;2023-02-18T10:17:30;14.70;99.90
6114;DHT22;3087;48.392;10.836;2023-02-18T10:19:58;14.70;99.90
6114;DHT22;3087;48.392;10.836;2023-02-18T10:22:25;14.80;99.90
6114;DHT22;3087;48.392;10.836;2023-02-18T10:24:57;14.80;99.90
6114;DHT22;3087;48.392;10.836;2023-02-18T10:27:30;14.70;99.90
6114;DHT22;3087;48.392;10.836;2023-02-18T10:30:11;14.70;99.90
6114;DHT22;3087;48.392;10.836;2023-02-18T10:32:44;14.50;99.90
6114;DHT22;3087;48.392;10.836;2023-02-18T10:38:07;14.90;99.90
6114;DHT22;3087;48.392;10.836;2023-02-18T10:44:16;15.30;99.90
6114;DHT22;3087;48.392;10.836;2023-02-18T10:46:36;15.80;99.90
6114;DHT22;3087;48.392;10.836;2023-02-18T10:49:11;15.90;99.90
6114;DHT22;3087;48.392;10.836;2023-02-18T10:51:47;16.20;99.90
6114;DHT22;3087;48.392;10.836;2023-02-18T10:54:13;16.10;99.90
6114;DHT22;3087;48.392;10.836;2023-02-18T10:56:40;16.00;99.90
6114;DHT22;3087;48.392;10.836;2023-02-18T10:59:30;16.10;99.90
6114;DHT22;3087;48.392;10.836;2023-02-18T11:02:00;16.50;99.90
6114;DHT22;3087;48.392;10.836;2023-02-18T11:04:38;16.60;99.90
6114;DHT22;3087;48.392;10.836;2023-02-18T11:09:42;16.90;99.90
6114;DHT22;3087;48.392;10.836;2023-02-18T11:12:47;16.90;99.90
6114;DHT22;3087;48.392;10.836;2023-02-18T11:17:40;16.70;99.90
6114;DHT22;3087;48.392;10.836;2023-02-18T11:20:34;16.50;99.90
6114;DHT22;3087;48.392;10.836;2023-02-18T11:25:39;16.40;99.90
6114;DHT22;3087;48.392;10.836;2023-02-18T11:30:58;15.60;99.90
6114;DHT22;3087;48.392;10.836;2023-02-18T11:33:43;15.60;99.90
6114;DHT22;3087;48.392;10.836;2023-02-18T11:38:55;15.60;99.90
6114;DHT22;3087;48.392;10.836;2023-02-18T11:44:00;15.40;99.90
6114;DHT22;3087;48.392;10.836;2023-02-18T11:46:27;15.40;99.90
6114;DHT22;3087;48.392;10.836;2023-02-18T11:48:54;15.40;99.90
6114;DHT22;3087;48.392;10.836;2023-02-18T11:51:25;15.40;99.90
6114;DHT22;3087;48.392;10.836;2023-02-18T11:54:08;15.50;99.90
6114;DHT22;3087;48.392;10.836;2023-02-18T11:56:57;15.40;99.90
6114;DHT22;3087;48.392;10.836;2023-02-18T11:59:24;15.40;99.90
6114;DHT22;3087;48.392;10.836;2023-02-18T12:02:21;15.20;99.90
6114;DHT22;3087;48.392;10.836;2023-02-18T12:05:42;15.30;99.90
6114;DHT22;3087;48.392;10.836;2023-02-18T12:08:16;15.30;99.90
6114;DHT22;3087;48.392;10.836;2023-02-18T12:10:55;15.30;99.90
6114;DHT22;3087;48.392;10.836;2023-02-18T12:13:37;15.40;99.90
6114;DHT22;3087;48.392;10.836;2023-02-18T12:33:00;16.00;99.90
6114;DHT22;3087;48.392;10.836;2023-02-18T12:49:17;15.80;99.90
6114;DHT22;3087;48.392;10.836;2023-02-18T12:54:51;15.60;99.90
6114;DHT22;3087;48.392;10.836;2023-02-18T13:05:56;15.60;99.90
6114;DHT22;3087;48.392;10.836;2023-02-18T13:14:03;15.30;99.90
6114;DHT22;3087;48.392;10.836;2023-02-18T13:16:34;15.30;99.90
6114;DHT22;3087;48.392;10.836;2023-02-18T13:19:01;15.20;99.90
6114;DHT22;3087;48.392;10.836;2023-02-18T13:21:28;15.20;99.90
6114;DHT22;3087;48.392;10.836;2023-02-18T13:24:00;15.20;99.90
6114;DHT22;3087;48.392;10.836;2023-02-18T13:26:29;15.20;99.90
6114;DHT22;3087;48.392;10.836;2023-02-18T13:34:38;15.10;99.90
6114;DHT22;3087;48.392;10.836;2023-02-18T13:37:39;15.10;99.90
6114;DHT22;3087;48.392;10.836;2023-02-18T13:40:25;15.10;99.90
6114;DHT22;3087;48.392;10.836;2023-02-18T13:42:54;15.20;99.90
6114;DHT22;3087;48.392;10.836;2023-02-18T13:45:39;15.20;99.90
6114;DHT22;3087;48.392;10.836;2023-02-18T13:48:22;15.20;99.90
6114;DHT22;3087;48.392;10.836;2023-02-18T13:51:03;15.20;99.90
6114;DHT22;3087;48.392;10.836;2023-02-18T13:53:31;15.10;99.90
6114;DHT22;3087;48.392;10.836;2023-02-18T13:56:04;15.10;99.90
6114;DHT22;3087;48.392;10.836;2023-02-18T13:58:40;15.20;99.90
6114;DHT22;3087;48.392;10.836;2023-02-18T14:06:20;15.20;99.90
6114;DHT22;3087;48.392;10.836;2023-02-18T14:08:47;15.20;99.90
6114;DHT22;3087;48.392;10.836;2023-02-18T14:14:14;15.20;99.90
6114;DHT22;3087;48.392;10.836;2023-02-18T14:22:32;15.20;99.90
6114;DHT22;3087;48.392;10.836;2023-02-18T14:27:37;15.30;99.90
6114;DHT22;3087;48.392;10.836;2023-02-18T14:30:17;15.30;99.90
6114;DHT22;3087;48.392;10.836;2023-02-18T14:32:44;15.30;99.90
6114;DHT22;3087;48.392;10.836;2023-02-18T14:35:31;15.20;99.90
6114;DHT22;3087;48.392;10.836;2023-02-18T14:38:36;15.20;99.90
6114;DHT22;3087;48.392;10.836;2023-02-18T14:44:10;15.10;99.90
6114;DHT22;3087;48.392;10.836;2023-02-18T14:47:44;15.10;99.90
6114;DHT22;3087;48.392;10.836;2023-02-18T14:49:48;15.10;99.90
6114;DHT22;3087;48.392;10.836;2023-02-18T14:55:24;15.00;99.90
6114;DHT22;3087;48.392;10.836;2023-02-18T15:00:42;15.00;99.90
6114;DHT22;3087;48.392;10.836;2023-02-18T15:03:17;15.00;99.90
6114;DHT22;3087;48.392;10.836;2023-02-18T15:05:45;15.00;99.90
6114;DHT22;3087;48.392;10.836;2023-02-18T15:11:02;15.00;99.90
6114;DHT22;3087;48.392;10.836;2023-02-18T15:13:41;15.00;99.90
6114;DHT22;3087;48.392;10.836;2023-02-18T15:16:25;14.90;99.90
6114;DHT22;3087;48.392;10.836;2023-02-18T15:18:57;14.90;99.90
6114;DHT22;3087;48.392;10.836;2023-02-18T15:24:01;15.00;99.90
6114;DHT22;3087;48.392;10.836;2023-02-18T15:26:29;15.00;99.90
6114;DHT22;3087;48.392;10.836;2023-02-18T15:29:05;15.00;99.90
6114;DHT22;3087;48.392;10.836;2023-02-18T15:31:37;15.00;99.90
6114;DHT22;3087;48.392;10.836;2023-02-18T15:34:30;15.00;99.90
6114;DHT22;3087;48.392;10.836;2023-02-18T15:36:57;14.90;99.90
6114;DHT22;3087;48.392;10.836;2023-02-18T15:39:23;14.80;99.90
6114;DHT22;3087;48.392;10.836;2023-02-18T15:41:55;14.90;99.90
6114;DHT22;3087;48.392;10.836;2023-02-18T15:44:24;14.80;99.90
6114;DHT22;3087;48.392;10.836;2023-02-18T15:46:50;14.80;99.90
6114;DHT22;3087;48.392;10.836;2023-02-18T15:49:20;14.70;99.90
6114;DHT22;3087;48.392;10.836;2023-02-18T15:51:47;14.70;99.90
6114;DHT22;3087;48.392;10.836;2023-02-18T15:54:18;14.70;99.90
6114;DHT22;3087;48.392;10.836;2023-02-18T15:56:49;14.70;99.90
6114;DHT22;3087;48.392;10.836;2023-02-18T15:59:28;14.60;99.90
6114;DHT22;3087;48.392;10.836;2023-02-18T16:02:22;14.60;99.90
6114;DHT22;3087;48.392;10.836;2023-02-18T16:04:56;14.60;99.90
6114;DHT22;3087;48.392;10.836;2023-02-18T16:07:27;14.50;99.90
6114;DHT22;3087;48.392;10.836;2023-02-18T16:10:17;14.50;99.90
6114;DHT22;3087;48.392;10.836;2023-02-18T16:12:49;14.50;99.90
6114;DHT22;3087;48.392;10.836;2023-02-18T16:15:28;14.40;99.90
6114;DHT22;3087;48.392;10.836;2023-02-18T16:17:54;14.40;99.90
6114;DHT22;3087;48.392;10.836;2023-02-18T16:20:35;14.30;99.90
6114;DHT22;3087;48.392;10.836;2023-02-18T16:23:11;13.60;99.90
6114;DHT22;3087;48.392;10.836;2023-02-18T16:25:43;14.30;99.90
6114;DHT22;3087;48.392;10.836;2023-02-18T16:28:35;14.20;99.90
6114;DHT22;3087;48.392;10.836;2023-02-18T16:31:01;14.20;99.90
6114;DHT22;3087;48.392;10.836;2023-02-18T16:33:26;14.20;99.90
6114;DHT22;3087;48.392;10.836;2023-02-18T16:35:52;14.20;99.90
6114;DHT22;3087;48.392;10.836;2023-02-18T16:38:22;14.20;99.90
6114;DHT22;3087;48.392;10.836;2023-02-18T16:40:49;14.20;99.90
6114;DHT22;3087;48.392;10.836;2023-02-18T16:43:24;14.20;99.90
6114;DHT22;3087;48.392;10.836;2023-02-18T16:46:09;14.10;99.90
6114;DHT22;3087;48.392;10.836;2023-02-18T16:48:42;14.10;99.90
6114;DHT22;3087;48.392;10.836;2023-02-18T16:51:12;14.10;99.90
6114;DHT22;3087;48.392;10.836;2023-02-18T16:53:39;14.10;99.90
6114;DHT22;3087;48.392;10.836;2023-02-18T16:56:10;14.00;99.90
6114;DHT22;3087;48.392;10.836;2023-02-18T16:58:36;14.00;99.90
6114;DHT22;3087;48.392;10.836;2023-02-18T17:01:02;14.00;99.90
6114;DHT22;3087;48.392;10.836;2023-02-18T17:03:28;14.00;99.90
6114;DHT22;3087;48.392;10.836;2023-02-18T17:05:53;14.00;99.90
6114;DHT22;3087;48.392;10.836;2023-02-18T17:08:21;13.90;99.90
6114;DHT22;3087;48.392;10.836;2023-02-18T17:10:56;13.90;99.90
6114;DHT22;3087;48.392;10.836;2023-02-18T17:13:24;13.80;99.90
6114;DHT22;3087;48.392;10.836;2023-02-18T17:15:53;13.80;99.90
6114;DHT22;3087;48.392;10.836;2023-02-18T17:18:19;13.70;99.90
6114;DHT22;3087;48.392;10.836;2023-02-18T17:20:46;13.70;99.90
6114;DHT22;3087;48.392;10.836;2023-02-18T17:23:14;13.70;99.90
6114;DHT22;3087;48.392;10.836;2023-02-18T17:25:41;13.70;99.90
6114;DHT22;3087;48.392;10.836;2023-02-18T17:28:07;13.70;99.90
6114;DHT22;3087;48.392;10.836;2023-02-18T17:30:40;13.70;99.90
6114;DHT22;3087;48.392;10.836;2023-02-18T17:33:14;13.60;99.90
6114;DHT22;3087;48.392;10.836;2023-02-18T17:35:40;13.60;99.90
6114;DHT22;3087;48.392;10.836;2023-02-18T17:38:11;13.60;99.90
6114;DHT22;3087;48.392;10.836;2023-02-18T17:40:36;13.50;99.90
6114;DHT22;3087;48.392;10.836;2023-02-18T17:43:02;13.50;99.90
6114;DHT22;3087;48.392;10.836;2023-02-18T17:45:32;13.50;99.90
6114;DHT22;3087;48.392;10.836;2023-02-18T17:47:59;13.50;99.90
6114;DHT22;3087;48.392;10.836;2023-02-18T17:50:25;13.50;99.90
6114;DHT22;3087;48.392;10.836;2023-02-18T17:52:52;13.50;99.90
6114;DHT22;3087;48.392;10.836;2023-02-18T17:55:20;13.50;99.90
6114;DHT22;3087;48.392;10.836;2023-02-18T17:57:46;13.50;99.90
6114;DHT22;3087;48.392;10.836;2023-02-18T18:00:21;13.50;99.90
6114;DHT22;3087;48.392;10.836;2023-02-18T18:02:47;13.50;99.90
6114;DHT22;3087;48.392;10.836;2023-02-18T18:05:19;13.50;99.90
6114;DHT22;3087;48.392;10.836;2023-02-18T18:07:45;13.50;99.90
6114;DHT22;3087;48.392;10.836;2023-02-18T18:10:11;13.50;99.90
6114;DHT22;3087;48.392;10.836;2023-02-18T18:12:37;13.40;99.90
6114;DHT22;3087;48.392;10.836;2023-02-18T18:15:16;13.70;99.90
6114;DHT22;3087;48.392;10.836;2023-02-18T18:17:44;13.40;99.90
6114;DHT22;3087;48.392;10.836;2023-02-18T18:20:10;13.40;99.90
6114;DHT22;3087;48.392;10.836;2023-02-18T18:22:35;13.40;99.90
6114;DHT22;3087;48.392;10.836;2023-02-18T18:25:09;13.40;99.90
6114;DHT22;3087;48.392;10.836;2023-02-18T18:27:40;13.40;99.90
6114;DHT22;3087;48.392;10.836;2023-02-18T18:30:06;13.30;99.90
6114;DHT22;3087;48.392;10.836;2023-02-18T18:32:31;13.20;99.90
6114;DHT22;3087;48.392;10.836;2023-02-18T18:34:57;13.20;99.90
6114;DHT22;3087;48.392;10.836;2023-02-18T18:37:23;13.00;99.90
6114;DHT22;3087;48.392;10.836;2023-02-18T18:39:48;13.00;99.90